Time;durP1;ratioP1;P1;durP2;ratioP2;P2;SDS_P1;SDS_P2;PMS_P1;PMS_P2;Temp;Humidity;BMP_temperature;BMP_pressure;BME280_temperature;BME280_humidity;BME280_pressure;Samples;Min_cycle;Max_cycle;Signal;HPM_P1;HPM_P2
2023/03/09 00:00:10;;;;;;;12.93;6.65;;;6.10;99.90;;;;;;5071900;28;20106;-51
2023/03/09 00:02:37;;;;;;;16.90;6.70;;;6.20;99.90;;;;;;5072490;28;20064;-53
2023/03/09 00:05:05;;;;;;;13.75;6.13;;;6.20;99.90;;;;;;5063592;28;20041;-53
2023/03/09 00:07:32;;;;;;;15.40;6.00;;;6.20;99.90;;;;;;5071971;28;20094;-54
2023/03/09 00:09:59;;;;;;;10.63;5.93;;;6.10;99.90;;;;;;5069426;28;20146;-56
2023/03/09 00:12:25;;;;;;;12.18;6.07;;;6.10;99.90;;;;;;5065834;28;20086;-51
2023/03/09 00:14:53;;;;;;;11.27;5.28;;;6.10;99.90;;;;;;5072091;28;20621;-53
2023/03/09 00:17:20;;;;;;;7.47;4.07;;;6.10;99.90;;;;;;5071802;28;20704;-51
2023/03/09 00:19:47;;;;;;;7.35;4.05;;;6.00;99.90;;;;;;5068306;28;20095;-54
2023/03/09 00:22:14;;;;;;;7.53;3.88;;;6.00;99.90;;;;;;5071071;28;20033;-51
2023/03/09 00:24:46;;;;;;;7.28;4.05;;;6.00;99.90;;;;;;5072209;28;20439;-53
2023/03/09 00:27:14;;;;;;;6.78;3.72;;;5.90;99.90;;;;;;5071490;28;20055;-53
2023/03/09 00:29:40;;;;;;;6.22;3.88;;;5.90;99.90;;;;;;5052000;28;20447;-53
2023/03/09 00:32:07;;;;;;;10.10;4.10;;;5.80;99.90;;;;;;5054100;28;20056;-51
2023/03/09 00:34:34;;;;;;;7.65;3.88;;;5.80;99.90;;;;;;5053913;28;20102;-52
2023/03/09 00:37:03;;;;;;;9.55;4.55;;;5.80;99.90;;;;;;5068678;28;20129;-52
2023/03/09 00:39:30;;;;;;;8.43;4.07;;;5.80;99.90;;;;;;5062675;28;20044;-52
2023/03/09 00:41:57;;;;;;;9.30;4.55;;;5.70;99.90;;;;;;5091037;28;20040;-55
2023/03/09 00:44:24;;;;;;;8.15;4.05;;;5.70;99.90;;;;;;5063548;28;20512;-53
2023/03/09 00:46:51;;;;;;;11.73;4.30;;;5.70;99.90;;;;;;5054238;28;20052;-53
2023/03/09 00:49:17;;;;;;;14.13;4.65;;;5.70;99.90;;;;;;5052028;28;20072;-51
2023/03/09 00:51:44;;;;;;;10.23;4.28;;;5.70;99.90;;;;;;5045427;28;20090;-55
2023/03/09 00:54:13;;;;;;;9.75;4.35;;;5.70;99.90;;;;;;5053756;28;20059;-51
2023/03/09 00:56:40;;;;;;;6.65;3.92;;;5.70;99.90;;;;;;5053760;28;20040;-54
2023/03/09 00:59:07;;;;;;;10.27;4.18;;;5.70;99.90;;;;;;5052609;28;20059;-54
2023/03/09 01:01:34;;;;;;;10.50;4.97;;;5.60;99.90;;;;;;5091794;28;20550;-51
2023/03/09 01:04:02;;;;;;;10.98;4.50;;;5.60;99.90;;;;;;5091128;28;20043;-52
2023/03/09 01:06:29;;;;;;;5.78;4.00;;;5.60;99.90;;;;;;5064566;28;20033;-54
2023/03/09 01:08:56;;;;;;;12.30;4.78;;;5.60;99.90;;;;;;5041964;28;20037;-53
2023/03/09 01:11:24;;;;;;;7.65;4.03;;;5.60;99.90;;;;;;5056430;28;20055;-53
2023/03/09 01:13:52;;;;;;;14.45;4.53;;;5.70;99.90;;;;;;5073140;28;20044;-54
2023/03/09 01:16:19;;;;;;;10.95;4.60;;;5.70;99.90;;;;;;5073218;28;20113;-54
2023/03/09 01:18:47;;;;;;;10.50;5.35;;;5.80;99.90;;;;;;5090912;28;20058;-54
2023/03/09 01:21:14;;;;;;;15.18;6.65;;;5.90;99.90;;;;;;5052622;28;20045;-51
2023/03/09 01:23:41;;;;;;;15.75;6.63;;;6.20;99.90;;;;;;5047821;28;20048;-52
2023/03/09 01:26:08;;;;;;;10.85;5.70;;;6.80;99.90;;;;;;5053356;28;20048;-55
2023/03/09 01:28:36;;;;;;;13.95;5.90;;;7.40;99.90;;;;;;5067531;28;20087;-53
2023/03/09 01:31:10;;;;;;;;;;;7.70;99.90;;;;;;5038555;28;20132;-51
2023/03/09 01:33:41;;;;;;;9.18;5.15;;;7.80;99.90;;;;;;5073373;28;19974;-53
2023/03/09 01:36:11;;;;;;;14.13;6.13;;;8.00;99.90;;;;;;5072946;28;20056;-51
2023/03/09 01:38:38;;;;;;;9.82;5.30;;;8.10;99.90;;;;;;5091264;28;20040;-55
2023/03/09 01:41:05;;;;;;;12.00;5.82;;;8.30;99.90;;;;;;5044720;28;20045;-51
2023/03/09 01:43:44;;;;;;;11.38;5.88;;;8.40;99.90;;;;;;5053510;28;20389;-52
2023/03/09 01:46:33;;;;;;;10.60;6.00;;;8.40;99.90;;;;;;5036787;28;20489;-56
2023/03/09 01:49:00;;;;;;;11.30;5.40;;;8.40;99.90;;;;;;5051169;28;20048;-52
2023/03/09 01:51:33;;;;;;;10.35;5.50;;;8.30;99.90;;;;;;5054961;28;20040;-52
2023/03/09 01:54:02;;;;;;;11.77;4.95;;;8.30;99.90;;;;;;5091363;28;20036;-52
2023/03/09 01:56:30;;;;;;;12.02;5.57;;;8.40;99.90;;;;;;5072756;28;20416;-53
2023/03/09 01:58:59;;;;;;;10.85;5.10;;;8.50;99.90;;;;;;5061852;28;20041;-52
2023/03/09 02:01:26;;;;;;;10.25;5.28;;;8.60;99.90;;;;;;5091054;28;20701;-51
2023/03/09 02:04:02;;;;;;;9.20;5.22;;;8.70;99.90;;;;;;5072267;28;20045;-50
2023/03/09 02:06:30;;;;;;;9.48;4.93;;;8.60;99.90;;;;;;5072957;28;20484;-54
2023/03/09 02:09:18;;;;;;;10.50;5.57;;;8.60;99.90;;;;;;5043604;28;20087;-55
2023/03/09 02:11:45;;;;;;;12.25;6.05;;;8.60;99.90;;;;;;5059072;28;20044;-55
2023/03/09 02:14:13;;;;;;;;;;;8.60;99.90;;;;;;5066898;28;20050;-55
2023/03/09 02:16:40;;;;;;;11.95;5.85;;;8.60;99.90;;;;;;5068180;28;19943;-50
2023/03/09 02:19:16;;;;;;;12.07;6.00;;;8.60;99.90;;;;;;5064208;28;20048;-53
2023/03/09 02:21:54;;;;;;;9.38;4.72;;;8.60;99.90;;;;;;5089485;28;20619;-54
2023/03/09 02:24:45;;;;;;;9.93;4.53;;;8.60;99.90;;;;;;5059200;28;20040;-51
2023/03/09 02:27:25;;;;;;;11.25;4.78;;;8.60;99.90;;;;;;5060001;28;20063;-51
2023/03/09 02:29:54;;;;;;;10.50;6.05;;;8.60;99.90;;;;;;5052120;28;20483;-52
2023/03/09 02:32:23;;;;;;;10.02;5.13;;;8.70;99.90;;;;;;5046392;28;20087;-52
2023/03/09 02:34:50;;;;;;;10.15;5.47;;;8.70;99.90;;;;;;5044870;28;20394;-51
2023/03/09 02:37:26;;;;;;;10.48;5.13;;;8.60;99.90;;;;;;5032585;28;20041;-53
2023/03/09 02:39:56;;;;;;;11.52;5.45;;;8.60;99.90;;;;;;5046550;28;20090;-52
2023/03/09 02:42:25;;;;;;;9.10;5.60;;;8.60;99.90;;;;;;5061441;28;20047;-51
2023/03/09 02:44:52;;;;;;;11.32;5.35;;;8.60;99.90;;;;;;5072488;28;20047;-51
2023/03/09 02:47:21;;;;;;;11.35;5.45;;;8.60;99.90;;;;;;5072488;28;20046;-52
2023/03/09 02:49:51;;;;;;;8.93;5.57;;;8.50;99.90;;;;;;5063588;28;20068;-54
2023/03/09 02:52:18;;;;;;;12.95;5.90;;;8.50;99.90;;;;;;5066851;28;20135;-55
2023/03/09 02:54:45;;;;;;;11.13;5.65;;;8.60;99.90;;;;;;5075984;28;20056;-52
2023/03/09 02:57:12;;;;;;;15.27;6.20;;;8.60;99.90;;;;;;5076220;28;20500;-51
2023/03/09 02:59:39;;;;;;;10.18;5.45;;;8.60;99.90;;;;;;5069153;28;20500;-53
2023/03/09 03:02:09;;;;;;;8.95;5.10;;;8.60;99.90;;;;;;5075466;28;20047;-54
2023/03/09 03:04:36;;;;;;;11.25;6.35;;;8.60;99.90;;;;;;5094323;28;20438;-51
2023/03/09 03:11:15;;;;;;;10.38;5.97;;;8.60;99.90;;;;;;5060049;28;20040;-50
2023/03/09 03:13:42;;;;;;;11.13;6.15;;;8.70;99.90;;;;;;5075876;28;20489;-53
2023/03/09 03:16:10;;;;;;;9.40;5.65;;;8.80;99.90;;;;;;5074296;28;20039;-50
2023/03/09 03:18:37;;;;;;;10.57;5.68;;;8.80;99.90;;;;;;5066570;28;20163;-50
2023/03/09 03:21:04;;;;;;;10.18;6.13;;;8.70;99.90;;;;;;5055578;28;20044;-51
2023/03/09 03:23:34;;;;;;;13.90;6.53;;;8.70;99.90;;;;;;5055230;28;20037;-50
2023/03/09 03:26:08;;;;;;;9.60;6.20;;;8.60;99.90;;;;;;5073435;28;20052;-51
2023/03/09 03:28:39;;;;;;;10.75;6.30;;;8.70;99.90;;;;;;5069805;28;20040;-51
2023/03/09 03:31:13;;;;;;;10.98;5.78;;;8.60;99.90;;;;;;5067335;28;20040;-50
2023/03/09 03:33:40;;;;;;;13.90;6.18;;;8.60;99.90;;;;;;5075534;28;20448;-51
2023/03/09 03:36:07;;;;;;;12.23;6.28;;;8.60;99.90;;;;;;5073592;28;20044;-50
2023/03/09 03:38:36;;;;;;;17.30;6.40;;;8.60;99.90;;;;;;5062662;28;20052;-50
2023/03/09 03:41:03;;;;;;;11.82;5.40;;;8.60;99.90;;;;;;5060584;28;20571;-51
2023/03/09 03:43:31;;;;;;;11.15;5.50;;;8.70;99.90;;;;;;5066603;28;20511;-51
2023/03/09 03:45:58;;;;;;;11.45;5.80;;;8.70;99.90;;;;;;5072970;28;20503;-50
2023/03/09 03:48:26;;;;;;;13.65;5.97;;;8.80;99.90;;;;;;5054823;28;20403;-51
2023/03/09 03:50:54;;;;;;;11.65;5.90;;;8.90;99.90;;;;;;5055051;28;20064;-50
2023/03/09 03:53:21;;;;;;;12.52;6.28;;;8.90;99.90;;;;;;5055201;28;20049;-52
2023/03/09 03:55:49;;;;;;;10.65;5.93;;;8.90;99.90;;;;;;5058406;28;20074;-50
2023/03/09 03:58:16;;;;;;;11.95;5.88;;;8.90;99.90;;;;;;5054419;28;20060;-54
2023/03/09 04:00:43;;;;;;;9.50;5.63;;;8.80;99.90;;;;;;5056866;28;20131;-49
2023/03/09 04:03:13;;;;;;;10.45;5.93;;;8.80;99.90;;;;;;5053512;28;20373;-50
2023/03/09 04:05:43;;;;;;;13.57;6.00;;;8.70;99.90;;;;;;5054838;28;20036;-50
2023/03/09 04:08:11;;;;;;;10.82;5.93;;;8.80;99.90;;;;;;5041815;28;20036;-49
2023/03/09 04:10:39;;;;;;;;;;;8.80;99.90;;;;;;5069719;28;20048;-51
2023/03/09 04:13:07;;;;;;;9.68;5.18;;;8.80;99.90;;;;;;5066108;28;19920;-50
2023/03/09 04:15:35;;;;;;;8.93;4.72;;;8.80;99.90;;;;;;5074168;28;20083;-49
2023/03/09 04:18:02;;;;;;;7.88;5.05;;;8.90;99.90;;;;;;5092566;28;20581;-50
2023/03/09 04:20:32;;;;;;;10.15;4.88;;;9.00;99.90;;;;;;5086106;28;20435;-50
2023/03/09 04:23:00;;;;;;;9.85;5.25;;;9.00;99.90;;;;;;5071735;28;20048;-53
2023/03/09 04:25:28;;;;;;;9.90;5.15;;;8.90;99.90;;;;;;5063674;28;20028;-49
2023/03/09 04:27:56;;;;;;;9.02;4.90;;;8.90;99.90;;;;;;5065321;28;20040;-50
2023/03/09 04:30:31;;;;;;;8.00;4.88;;;8.80;99.90;;;;;;5053332;28;20066;-51
2023/03/09 04:33:01;;;;;;;9.73;5.00;;;8.70;99.90;;;;;;5054006;28;20074;-51
2023/03/09 04:35:28;;;;;;;10.60;4.50;;;8.60;99.90;;;;;;5054174;28;20090;-50
2023/03/09 04:37:57;;;;;;;12.07;5.63;;;8.60;99.90;;;;;;5053732;28;20508;-50
2023/03/09 04:40:24;;;;;;;9.43;4.93;;;8.40;99.90;;;;;;5069699;28;20646;-53
2023/03/09 04:42:54;;;;;;;9.23;4.63;;;8.30;99.90;;;;;;5056220;28;20075;-51
2023/03/09 04:45:21;;;;;;;6.32;3.35;;;8.20;99.90;;;;;;5053688;28;20041;-54
2023/03/09 04:47:49;;;;;;;7.75;4.05;;;7.90;99.90;;;;;;5056346;28;20389;-49
2023/03/09 04:50:19;;;;;;;9.63;4.75;;;7.90;99.90;;;;;;5061313;28;20040;-50
2023/03/09 04:52:51;;;;;;;7.05;4.40;;;7.80;99.90;;;;;;5053805;28;20048;-51
2023/03/09 04:55:19;;;;;;;6.60;4.03;;;7.70;99.90;;;;;;5054067;28;20056;-49
2023/03/09 04:57:46;;;;;;;11.57;4.75;;;7.70;99.90;;;;;;5068839;28;20044;-50
2023/03/09 05:00:16;;;;;;;11.07;4.90;;;7.70;99.90;;;;;;5073334;28;20044;-51
2023/03/09 05:02:43;;;;;;;9.18;5.78;;;7.70;99.90;;;;;;5073522;28;20503;-51
2023/03/09 05:05:11;;;;;;;9.25;4.50;;;7.60;99.90;;;;;;5073841;28;20055;-49
2023/03/09 05:07:38;;;;;;;10.88;4.68;;;7.60;99.90;;;;;;5072210;28;20042;-49
2023/03/09 05:10:08;;;;;;;10.45;5.47;;;7.60;99.90;;;;;;5073304;28;20143;-50
2023/03/09 05:12:38;;;;;;;9.10;5.15;;;7.50;99.90;;;;;;5072135;28;20044;-51
2023/03/09 05:15:09;;;;;;;8.45;4.43;;;7.50;99.90;;;;;;5072971;28;20085;-53
2023/03/09 05:17:36;;;;;;;;;;;7.40;99.90;;;;;;5055132;28;20136;-51
2023/03/09 05:20:09;;;;;;;11.85;5.80;;;7.40;99.90;;;;;;5057536;28;20390;-50
2023/03/09 05:22:40;;;;;;;9.48;4.97;;;7.40;99.90;;;;;;5073468;28;20032;-50
2023/03/09 05:25:09;;;;;;;11.25;4.97;;;7.40;99.90;;;;;;5069467;28;20700;-54
2023/03/09 05:27:37;;;;;;;7.40;4.15;;;7.20;99.90;;;;;;5054927;28;20513;-50
2023/03/09 05:30:05;;;;;;;8.35;3.50;;;7.20;99.90;;;;;;5062535;28;20068;-49
2023/03/09 05:32:33;;;;;;;6.63;3.63;;;7.30;99.90;;;;;;5087251;28;20028;-50
2023/03/09 05:35:00;;;;;;;7.93;3.80;;;7.20;99.90;;;;;;5072989;28;20081;-49
2023/03/09 05:37:27;;;;;;;6.30;3.70;;;7.30;99.90;;;;;;5066767;28;20503;-51
2023/03/09 05:39:57;;;;;;;6.13;3.30;;;7.40;99.90;;;;;;5059332;28;20451;-50
2023/03/09 05:42:24;;;;;;;7.18;4.00;;;7.40;99.90;;;;;;5057939;28;20067;-53
2023/03/09 05:44:51;;;;;;;11.57;6.00;;;7.50;99.90;;;;;;5073344;28;20086;-51
2023/03/09 05:47:17;;;;;;;11.63;4.55;;;7.60;99.90;;;;;;5064561;28;20052;-50
2023/03/09 05:49:47;;;;;;;8.93;3.90;;;7.80;99.90;;;;;;5081637;28;20044;-50
2023/03/09 05:52:14;;;;;;;8.07;4.30;;;7.90;99.90;;;;;;5070770;28;20067;-51
2023/03/09 05:54:41;;;;;;;;;;;7.90;99.90;;;;;;5052420;28;20048;-50
2023/03/09 05:57:12;;;;;;;5.85;3.33;;;8.00;99.90;;;;;;5052937;28;19920;-49
2023/03/09 05:59:41;;;;;;;5.50;3.42;;;7.90;99.90;;;;;;5060472;28;20462;-49
2023/03/09 06:02:08;;;;;;;6.20;3.83;;;7.80;99.90;;;;;;5070255;28;20036;-51
2023/03/09 06:04:38;;;;;;;7.95;4.32;;;7.70;99.90;;;;;;5056816;28;20415;-50
2023/03/09 06:07:08;;;;;;;9.88;4.13;;;7.80;99.90;;;;;;5051643;28;20059;-49
2023/03/09 06:09:41;;;;;;;9.15;4.40;;;7.70;99.90;;;;;;5055281;28;20040;-50
2023/03/09 06:12:14;;;;;;;13.05;4.70;;;7.80;99.90;;;;;;5072338;28;20044;-49
2023/03/09 06:14:43;;;;;;;7.88;4.63;;;7.90;99.90;;;;;;5063439;28;20401;-50
2023/03/09 06:17:11;;;;;;;11.10;5.35;;;8.10;99.90;;;;;;5052643;28;20398;-50
2023/03/09 06:19:37;;;;;;;11.60;4.97;;;8.10;99.90;;;;;;5050562;28;20048;-51
2023/03/09 06:22:04;;;;;;;12.77;5.13;;;8.00;99.90;;;;;;5052511;28;20397;-50
2023/03/09 06:24:33;;;;;;;7.25;4.13;;;7.90;99.90;;;;;;5060694;28;20084;-51
2023/03/09 06:27:01;;;;;;;6.97;4.10;;;7.80;99.90;;;;;;5071075;28;20041;-51
2023/03/09 06:29:32;;;;;;;13.88;4.97;;;7.50;99.90;;;;;;5055872;28;20074;-50
2023/03/09 06:32:00;;;;;;;13.63;6.00;;;7.40;99.90;;;;;;5063471;28;20050;-49
2023/03/09 06:34:30;;;;;;;13.05;5.68;;;7.40;99.90;;;;;;5056452;28;20068;-50
2023/03/09 06:37:02;;;;;;;12.90;5.63;;;7.30;99.90;;;;;;5056704;28;20169;-49
2023/03/09 06:39:29;;;;;;;16.38;7.05;;;7.20;99.90;;;;;;5080529;28;20043;-49
2023/03/09 06:41:57;;;;;;;20.15;7.90;;;7.10;99.90;;;;;;5059867;28;20066;-51
2023/03/09 06:44:31;;;;;;;17.00;7.10;;;6.90;99.90;;;;;;5074911;28;20090;-49
2023/03/09 06:46:59;;;;;;;54.72;27.13;;;6.90;99.90;;;;;;5076286;28;20036;-50
2023/03/09 06:49:27;;;;;;;120.50;50.05;;;6.90;99.90;;;;;;5061831;28;20151;-49
2023/03/09 06:51:57;;;;;;;57.95;26.65;;;6.90;99.90;;;;;;5070311;28;20075;-51
2023/03/09 06:54:25;;;;;;;25.75;12.13;;;6.90;99.90;;;;;;5039969;28;20064;-50
2023/03/09 06:57:00;;;;;;;19.40;8.38;;;7.00;99.90;;;;;;5065751;28;20105;-50
2023/03/09 06:59:30;;;;;;;17.10;8.77;;;7.00;99.90;;;;;;5063190;28;20080;-52
2023/03/09 07:01:59;;;;;;;15.55;7.38;;;7.00;99.90;;;;;;5072435;28;20450;-49
2023/03/09 07:04:26;;;;;;;22.35;9.45;;;7.00;99.90;;;;;;5055699;28;20071;-51
2023/03/09 07:06:53;;;;;;;17.88;9.27;;;7.00;99.90;;;;;;5076932;28;20040;-50
2023/03/09 07:09:20;;;;;;;19.38;8.40;;;7.00;99.90;;;;;;5085291;28;20093;-50
2023/03/09 07:11:48;;;;;;;14.68;8.00;;;6.90;99.90;;;;;;5093747;28;20052;-49
2023/03/09 07:14:15;;;;;;;13.82;6.70;;;6.80;99.90;;;;;;5076069;28;20052;-50
2023/03/09 07:16:42;;;;;;;13.20;6.65;;;6.80;99.90;;;;;;5086071;28;20037;-49
2023/03/09 07:19:09;;;;;;;19.27;8.05;;;6.80;99.90;;;;;;5090558;28;20097;-51
2023/03/09 07:21:36;;;;;;;13.43;6.80;;;6.90;99.90;;;;;;5079284;28;20090;-49
2023/03/09 07:24:03;;;;;;;17.40;9.35;;;6.90;99.90;;;;;;5091073;28;20040;-49
2023/03/09 07:26:30;;;;;;;16.45;8.50;;;6.90;99.90;;;;;;5093913;28;20105;-49
2023/03/09 07:28:57;;;;;;;17.63;8.90;;;6.90;99.90;;;;;;5081356;28;20488;-49
2023/03/09 07:31:24;;;;;;;15.00;8.25;;;6.90;99.90;;;;;;5073505;28;20037;-49
2023/03/09 07:33:50;;;;;;;12.98;7.13;;;6.90;99.90;;;;;;5079431;28;20064;-53
2023/03/09 07:36:17;;;;;;;15.43;7.88;;;6.90;99.90;;;;;;5073317;28;20056;-49
2023/03/09 07:38:44;;;;;;;14.10;7.85;;;6.90;99.90;;;;;;5071591;28;20074;-50
2023/03/09 07:41:11;;;;;;;15.32;7.40;;;6.90;99.90;;;;;;5073242;28;20056;-49
2023/03/09 07:43:43;;;;;;;13.10;7.22;;;7.00;99.90;;;;;;5078853;28;20040;-51
2023/03/09 07:46:25;;;;;;;15.73;7.43;;;7.00;99.90;;;;;;5085075;28;20127;-49
2023/03/09 07:48:52;;;;;;;13.40;6.75;;;7.00;99.90;;;;;;5092568;28;20048;-49
2023/03/09 07:51:21;;;;;;;12.95;6.30;;;7.10;99.90;;;;;;5093796;28;20047;-50
2023/03/09 07:53:48;;;;;;;19.73;7.57;;;7.20;99.90;;;;;;5082895;28;20048;-51
2023/03/09 07:56:16;;;;;;;16.77;7.80;;;7.30;99.90;;;;;;5084500;28;20040;-50
2023/03/09 07:58:44;;;;;;;19.58;7.40;;;7.40;99.90;;;;;;5092452;28;20040;-51
2023/03/09 08:01:16;;;;;;;18.05;6.95;;;7.50;99.90;;;;;;5080200;28;20083;-50
2023/03/09 08:03:45;;;;;;;13.18;7.22;;;7.80;99.90;;;;;;5072160;28;20040;-50
2023/03/09 08:06:13;;;;;;;9.60;6.00;;;8.00;99.90;;;;;;5054463;28;20044;-49
2023/03/09 08:08:40;;;;;;;10.40;6.10;;;8.20;99.90;;;;;;5081661;28;20393;-50
2023/03/09 08:11:07;;;;;;;14.00;7.95;;;8.30;99.90;;;;;;5080961;28;20032;-49
2023/03/09 08:13:34;;;;;;;12.50;7.22;;;8.40;99.90;;;;;;5086510;28;20430;-50
2023/03/09 08:16:04;;;;;;;13.93;6.95;;;8.40;99.90;;;;;;5081414;28;20070;-52
2023/03/09 08:18:31;;;;;;;10.00;4.70;;;8.50;99.90;;;;;;5071665;28;20048;-49
2023/03/09 08:21:08;;;;;;;;;;;8.40;99.90;;;;;;5072323;28;20497;-52
2023/03/09 08:23:39;;;;;;;5.75;2.70;;;8.50;99.90;;;;;;5087096;28;19924;-51
2023/03/09 08:26:08;;;;;;;11.07;3.63;;;8.70;99.90;;;;;;5079197;28;20040;-49
2023/03/09 08:28:34;;;;;;;9.98;5.60;;;8.70;99.90;;;;;;5071820;28;20041;-51
2023/03/09 08:31:02;;;;;;;6.22;3.30;;;8.70;99.90;;;;;;5071982;28;20041;-52
2023/03/09 08:33:28;;;;;;;4.90;1.50;;;8.70;99.90;;;;;;5081385;28;20064;-52
2023/03/09 08:35:55;;;;;;;1.55;0.90;;;8.60;99.90;;;;;;5074686;28;20040;-49
2023/03/09 08:38:23;;;;;;;3.25;1.58;;;8.50;99.90;;;;;;5071941;28;20090;-51
2023/03/09 08:40:49;;;;;;;2.33;1.05;;;8.50;99.90;;;;;;5072312;28;20051;-49
2023/03/09 08:43:16;;;;;;;3.22;1.23;;;8.60;99.90;;;;;;5075289;28;20291;-51
2023/03/09 08:45:43;;;;;;;5.13;1.27;;;8.60;99.90;;;;;;5092006;28;20097;-53
2023/03/09 08:48:09;;;;;;;7.00;2.50;;;8.60;99.90;;;;;;5072467;28;20628;-53
2023/03/09 08:50:37;;;;;;;3.40;2.15;;;8.50;99.90;;;;;;5071389;28;20098;-49
2023/03/09 08:53:04;;;;;;;9.55;4.90;;;8.60;99.90;;;;;;5087323;28;20492;-50
2023/03/09 08:55:30;;;;;;;1.70;1.30;;;8.80;99.90;;;;;;5090784;28;20097;-53
2023/03/09 08:57:58;;;;;;;4.85;1.60;;;8.90;99.90;;;;;;5090824;28;20048;-52
2023/03/09 09:00:25;;;;;;;4.40;2.08;;;9.00;99.90;;;;;;5089710;28;20059;-49
2023/03/09 09:02:52;;;;;;;9.60;3.88;;;9.10;99.90;;;;;;5091830;28;20424;-49
2023/03/09 09:05:18;;;;;;;3.28;1.63;;;9.10;99.90;;;;;;5091204;28;20044;-50
2023/03/09 09:12:11;;;;;;;0.57;0.50;;;9.10;99.90;;;;;;5091704;28;20039;-57
2023/03/09 09:14:38;;;;;;;2.85;1.30;;;9.10;99.90;;;;;;5091289;28;20411;-56
2023/03/09 09:17:08;;;;;;;;;;;9.10;99.90;;;;;;5082220;28;20110;-58
2023/03/09 09:19:36;;;;;;;5.72;2.72;;;9.10;99.90;;;;;;5079309;28;19924;-58
2023/03/09 09:22:04;;;;;;;3.90;1.42;;;9.20;99.90;;;;;;5091736;28;20048;-56
2023/03/09 09:24:38;;;;;;;3.38;1.33;;;9.30;99.90;;;;;;5091282;28;20477;-57
2023/03/09 09:27:10;;;;;;;4.95;2.13;;;9.40;99.90;;;;;;5091471;28;20561;-57
2023/03/09 09:29:37;;;;;;;10.52;4.47;;;9.70;99.90;;;;;;5083644;28;20461;-57
2023/03/09 09:32:06;;;;;;;5.82;2.38;;;9.70;99.90;;;;;;5073372;28;20459;-56
2023/03/09 09:34:34;;;;;;;1.20;0.88;;;9.90;99.90;;;;;;5090904;28;20135;-57
2023/03/09 09:37:03;;;;;;;2.47;0.90;;;10.10;99.90;;;;;;5091510;28;20082;-57
2023/03/09 09:39:32;;;;;;;1.90;0.90;;;10.50;99.90;;;;;;5087466;28;20048;-56
2023/03/09 09:42:03;;;;;;;1.08;0.60;;;11.00;99.90;;;;;;5088985;28;20090;-58
2023/03/09 09:44:43;;;;;;;1.52;0.50;;;11.30;99.90;;;;;;5091498;28;20039;-58
2023/03/09 09:47:16;;;;;;;1.85;1.02;;;11.50;99.90;;;;;;5087276;28;20101;-57
2023/03/09 09:49:46;;;;;;;2.28;0.90;;;11.90;99.90;;;;;;5089609;28;20507;-56
2023/03/09 09:52:44;;;;;;;0.85;0.60;;;11.90;99.90;;;;;;5091412;28;20052;-55
2023/03/09 09:55:18;;;;;;;1.23;0.35;;;12.00;99.90;;;;;;5090946;28;20562;-58
2023/03/09 09:58:01;;;;;;;4.55;0.98;;;12.30;99.90;;;;;;5088717;28;20105;-57
2023/03/09 10:00:34;;;;;;;0.68;0.30;;;12.40;99.90;;;;;;5075782;28;20175;-56
2023/03/09 10:03:25;;;;;;;1.98;0.22;;;12.40;99.90;;;;;;5095226;28;20055;-57
2023/03/09 10:06:03;;;;;;;2.83;1.40;;;12.40;99.90;;;;;;5094806;28;20484;-58
2023/03/09 10:08:45;;;;;;;2.15;1.02;;;12.80;99.90;;;;;;5093743;28;20071;-58
2023/03/09 10:11:35;;;;;;;2.67;1.00;;;12.90;99.90;;;;;;5094580;28;20119;-58
2023/03/09 10:14:18;;;;;;;2.03;0.70;;;13.10;99.90;;;;;;5096005;28;20071;-56
2023/03/09 10:16:56;;;;;;;1.95;0.60;;;13.00;99.90;;;;;;5095114;28;20097;-58
2023/03/09 10:19:29;;;;;;;3.20;0.50;;;12.90;99.90;;;;;;5091125;28;20047;-57
2023/03/09 10:22:00;;;;;;;0.55;0.30;;;12.80;99.90;;;;;;5095210;28;20040;-57
2023/03/09 10:24:38;;;;;;;1.60;0.55;;;13.20;99.90;;;;;;5094415;28;20032;-58
2023/03/09 10:27:30;;;;;;;2.50;0.40;;;13.10;99.90;;;;;;5092823;28;20098;-58
2023/03/09 10:30:21;;;;;;;1.23;0.40;;;13.30;99.90;;;;;;5091492;28;20040;-58
2023/03/09 10:32:54;;;;;;;1.92;0.30;;;13.50;99.90;;;;;;5088031;28;20037;-57
2023/03/09 10:35:24;;;;;;;2.03;0.50;;;13.10;99.90;;;;;;5087811;28;20044;-56
2023/03/09 10:37:51;;;;;;;2.28;0.85;;;13.10;99.90;;;;;;5092102;28;20044;-58
2023/03/09 10:40:20;;;;;;;;;;;13.10;99.90;;;;;;5090045;28;20040;-57
2023/03/09 10:42:47;;;;;;;1.13;0.80;;;13.20;99.90;;;;;;5093527;28;19978;-58
2023/03/09 10:45:29;;;;;;;1.92;0.47;;;13.40;99.90;;;;;;5093558;28;20040;-58
2023/03/09 10:48:02;;;;;;;1.23;0.52;;;13.40;99.90;;;;;;5093472;28;20067;-58
2023/03/09 10:50:35;;;;;;;1.92;0.90;;;13.10;99.90;;;;;;5092343;28;20122;-58
2023/03/09 10:53:24;;;;;;;3.80;0.45;;;13.20;99.90;;;;;;5088185;28;20497;-56
2023/03/09 10:55:53;;;;;;;6.35;1.55;;;13.10;99.90;;;;;;5094094;28;20044;-58
2023/03/09 10:58:32;;;;;;;1.23;0.60;;;13.20;99.90;;;;;;5093924;28;20040;-57
2023/03/09 11:01:22;;;;;;;0.80;0.45;;;13.30;99.90;;;;;;5089530;28;20049;-57
2023/03/09 11:03:49;;;;;;;0.50;0.43;;;13.60;99.90;;;;;;5091694;28;20044;-57
2023/03/09 11:06:21;;;;;;;1.48;0.73;;;13.60;99.90;;;;;;5093695;28;20066;-58
2023/03/09 11:09:03;;;;;;;2.30;0.88;;;13.40;99.90;;;;;;5112875;28;20035;-57
2023/03/09 11:11:47;;;;;;;2.25;0.90;;;13.60;99.90;;;;;;5113956;28;20131;-58
2023/03/09 11:14:33;;;;;;;1.20;0.50;;;14.00;99.90;;;;;;5086439;28;20047;-57
2023/03/09 11:17:03;;;;;;;0.77;0.40;;;14.00;99.90;;;;;;5103018;28;20039;-57
2023/03/09 11:19:30;;;;;;;3.13;1.30;;;14.10;99.90;;;;;;5113904;28;20118;-56
2023/03/09 11:22:12;;;;;;;2.70;1.35;;;14.10;99.90;;;;;;5103843;28;20522;-58
2023/03/09 11:24:43;;;;;;;1.30;0.70;;;14.00;99.90;;;;;;5108729;28;20047;-56
2023/03/09 11:27:25;;;;;;;0.73;0.50;;;14.00;99.90;;;;;;5114369;28;20044;-58
2023/03/09 11:30:14;;;;;;;1.58;0.40;;;13.90;99.90;;;;;;5098038;28;20091;-58
2023/03/09 11:32:41;;;;;;;3.80;1.35;;;14.00;99.90;;;;;;5088656;28;20116;-55
2023/03/09 11:35:13;;;;;;;3.22;1.58;;;14.10;99.90;;;;;;5092413;28;20065;-56
2023/03/09 11:37:57;;;;;;;0.35;0.35;;;14.20;99.90;;;;;;5092984;28;20036;-56
2023/03/09 11:40:29;;;;;;;2.05;0.40;;;14.30;99.90;;;;;;5085635;28;20373;-58
2023/03/09 11:43:07;;;;;;;0.43;0.30;;;14.60;99.90;;;;;;5110441;28;20058;-59
2023/03/09 11:45:35;;;;;;;6.15;0.52;;;14.90;99.90;;;;;;5114098;28;20434;-58
2023/03/09 11:48:25;;;;;;;2.47;0.32;;;15.00;99.90;;;;;;5105503;28;20536;-58
2023/03/09 11:51:10;;;;;;;0.47;0.40;;;14.90;99.90;;;;;;5110148;28;20122;-58
2023/03/09 11:54:01;;;;;;;0.98;0.38;;;14.50;99.90;;;;;;5113825;28;20036;-58
2023/03/09 11:56:32;;;;;;;0.85;0.30;;;14.40;99.90;;;;;;5112656;28;20449;-58
2023/03/09 11:59:24;;;;;;;1.65;0.30;;;14.50;99.90;;;;;;5088378;28;20496;-56
2023/03/09 12:01:58;;;;;;;1.15;0.50;;;14.50;99.90;;;;;;5092927;28;20044;-56
2023/03/09 12:04:25;;;;;;;0.40;0.30;;;14.50;99.90;;;;;;5092856;28;20040;-57
2023/03/09 12:06:52;;;;;;;5.40;0.40;;;14.40;99.90;;;;;;5091564;28;20040;-58
2023/03/09 12:09:36;;;;;;;0.52;0.38;;;14.10;99.90;;;;;;5091981;28;20039;-58
2023/03/09 12:12:26;;;;;;;1.20;0.45;;;14.20;99.90;;;;;;5092441;28;20040;-56
2023/03/09 12:15:01;;;;;;;3.50;0.50;;;14.40;99.90;;;;;;5100062;28;20043;-58
2023/03/09 12:17:36;;;;;;;0.75;0.28;;;14.70;99.90;;;;;;5092839;28;20077;-59
2023/03/09 12:20:03;;;;;;;3.00;0.70;;;14.80;99.90;;;;;;5092571;28;20500;-57
2023/03/09 12:22:30;;;;;;;0.40;0.30;;;15.00;99.90;;;;;;5089379;28;20550;-56
2023/03/09 12:25:02;;;;;;;0.22;0.22;;;15.10;99.90;;;;;;5088762;28;20165;-57
2023/03/09 12:27:32;;;;;;;0.85;0.30;;;15.40;99.90;;;;;;5091465;28;20043;-57
2023/03/09 12:30:23;;;;;;;1.52;0.40;;;15.50;99.90;;;;;;5092102;28;20044;-59
2023/03/09 12:32:50;;;;;;;0.50;0.30;;;15.70;99.90;;;;;;5092233;28;20048;-56
2023/03/09 12:35:19;;;;;;;2.40;0.50;;;15.70;99.90;;;;;;5090415;28;20047;-58
2023/03/09 12:37:46;;;;;;;0.57;0.52;;;15.90;99.90;;;;;;5092188;28;20051;-58
2023/03/09 12:40:16;;;;;;;0.52;0.30;;;15.60;99.90;;;;;;5091180;28;20052;-58
2023/03/09 12:42:48;;;;;;;1.30;0.43;;;15.50;99.90;;;;;;5082232;28;20506;-58
2023/03/09 12:45:18;;;;;;;2.75;0.68;;;15.50;99.80;;;;;;5091959;28;20036;-58
2023/03/09 12:48:06;;;;;;;1.15;0.45;;;15.40;99.90;;;;;;5091655;28;20032;-58
2023/03/09 12:50:42;;;;;;;;;;;15.70;99.90;;;;;;5091335;28;20036;-58
2023/03/09 12:53:09;;;;;;;3.53;0.20;;;15.80;99.60;;;;;;5092016;28;20376;-59
2023/03/09 12:55:35;;;;;;;1.55;0.30;;;15.60;98.10;;;;;;5091487;28;20076;-58
2023/03/09 12:58:20;;;;;;;1.17;0.20;;;15.80;97.60;;;;;;5090591;28;20405;-58
2023/03/09 13:01:27;;;;;;;0.47;0.30;;;16.20;96.60;;;;;;5092030;28;20043;-58
2023/03/09 13:04:09;;;;;;;1.33;0.30;;;16.30;96.60;;;;;;5091282;28;20561;-58
2023/03/09 13:06:42;;;;;;;0.88;0.20;;;16.20;94.20;;;;;;5087251;28;20039;-57
2023/03/09 13:09:15;;;;;;;1.98;0.45;;;16.30;95.10;;;;;;5086968;28;20039;-58
2023/03/09 13:11:55;;;;;;;0.30;0.30;;;16.40;95.40;;;;;;5091741;28;20044;-58
2023/03/09 13:14:25;;;;;;;1.20;0.20;;;16.50;94.60;;;;;;5088773;28;20032;-56
2023/03/09 13:17:29;;;;;;;1.05;0.30;;;16.50;93.60;;;;;;5091015;28;20040;-56
2023/03/09 13:20:31;;;;;;;3.83;0.68;;;16.30;92.30;;;;;;5090566;28;20062;-59